createdAt,value
2023-03-06T00:02:05.397Z,89.47
2023-03-06T00:04:33.142Z,86.42
2023-03-06T00:07:00.775Z,85.85
2023-03-06T00:09:28.472Z,84.55
2023-03-06T00:11:56.152Z,83.76
2023-03-06T00:14:25.184Z,84.16
2023-03-06T00:16:56.024Z,86.28
2023-03-06T00:19:24.250Z,84.62
2023-03-06T00:21:51.993Z,86.90
2023-03-06T00:24:19.692Z,86.80
2023-03-06T00:26:47.423Z,87.47
2023-03-06T00:29:15.163Z,87.61
2023-03-06T00:31:47.925Z,87.03
2023-03-06T00:34:16.033Z,87.67
2023-03-06T00:36:43.707Z,89.04
2023-03-06T00:39:11.505Z,89.17
2023-03-06T00:41:39.207Z,87.67
2023-03-06T00:44:06.943Z,88.42
2023-03-06T00:46:34.821Z,88.45
2023-03-06T00:49:05.176Z,90.48
2023-03-06T00:51:32.866Z,91.49
2023-03-06T00:54:00.541Z,90.49
2023-03-06T00:56:29.971Z,90.22
2023-03-06T00:58:57.680Z,90.36
2023-03-06T01:01:26.457Z,90.21
2023-03-06T01:03:54.135Z,89.36
2023-03-06T01:06:23.356Z,91.51
2023-03-06T01:08:51.050Z,91.06
2023-03-06T01:11:18.854Z,91.61
2023-03-06T01:13:46.703Z,92.37
2023-03-06T01:16:16.877Z,91.03
2023-03-06T01:18:44.614Z,91.62
2023-03-06T01:21:12.772Z,93.01
2023-03-06T01:23:42.017Z,95.12
2023-03-06T01:26:11.468Z,97.18
2023-03-06T01:28:40.490Z,97.15
2023-03-06T01:31:09.433Z,95.36
2023-03-06T01:33:37.655Z,95.27
2023-03-06T01:36:07.769Z,94.96
2023-03-06T01:38:36.194Z,94.04
2023-03-06T01:41:06.832Z,93.64
2023-03-06T01:43:36.206Z,93.64
2023-03-06T01:46:29.314Z,92.90
2023-03-06T01:48:59.843Z,94.03
2023-03-06T01:51:31.260Z,93.21
2023-03-06T01:54:02.637Z,97.67
2023-03-06T01:56:32.005Z,93.08
2023-03-06T01:58:59.841Z,93.00
2023-03-06T02:01:27.780Z,92.24
2023-03-06T02:03:56.512Z,95.12
2023-03-06T02:06:24.141Z,92.27
2023-03-06T02:08:53.910Z,90.51
2023-03-06T02:11:24.150Z,92.38
2023-03-06T02:13:55.432Z,92.93
2023-03-06T02:16:27.455Z,90.97
2023-03-06T02:18:55.645Z,92.34
2023-03-06T02:21:26.333Z,93.13
2023-03-06T02:24:08.080Z,93.48
2023-03-06T02:26:38.715Z,93.71
2023-03-06T02:29:08.612Z,92.70
2023-03-06T02:31:36.580Z,92.87
2023-03-06T02:34:07.264Z,94.87
2023-03-06T02:36:38.730Z,95.00
2023-03-06T02:39:07.838Z,95.75
2023-03-06T02:41:37.153Z,94.98
2023-03-06T02:44:05.102Z,95.52
2023-03-06T02:46:32.898Z,96.41
2023-03-06T02:49:00.520Z,96.26
2023-03-06T02:51:28.393Z,95.53
2023-03-06T02:53:56.174Z,96.16
2023-03-06T02:56:23.967Z,95.05
2023-03-06T02:58:53.092Z,96.42
2023-03-06T03:01:21.990Z,96.18
2023-03-06T03:03:49.702Z,96.31
2023-03-06T03:06:17.374Z,96.02
2023-03-06T03:08:45.557Z,96.01
2023-03-06T03:11:13.556Z,95.57
2023-03-06T03:13:44.215Z,96.11
2023-03-06T03:16:21.284Z,97.15
2023-03-06T03:18:50.962Z,96.09
2023-03-06T03:21:21.066Z,97.60
2023-03-06T03:23:49.658Z,96.20
2023-03-06T03:26:19.446Z,95.85
2023-03-06T03:28:57.609Z,95.50
2023-03-06T03:31:26.630Z,95.66
2023-03-06T03:33:54.349Z,95.97
2023-03-06T03:36:23.428Z,95.20
2023-03-06T03:38:51.241Z,94.74
2023-03-06T03:41:19.472Z,95.09
2023-03-06T03:43:47.145Z,96.88
2023-03-06T03:46:15.321Z,96.94
2023-03-06T03:48:44.616Z,96.22
2023-03-06T03:51:39.550Z,97.64
2023-03-06T03:54:07.723Z,96.59
2023-03-06T03:56:41.718Z,96.57
2023-03-06T03:59:26.535Z,95.79
2023-03-06T04:02:29.805Z,96.37
2023-03-06T04:05:14.884Z,96.83
2023-03-06T04:07:43.698Z,96.57
2023-03-06T04:10:13.689Z,97.18
2023-03-06T04:12:42.072Z,98.29
2023-03-06T04:15:12.060Z,97.83
2023-03-06T04:17:40.330Z,99.25
2023-03-06T04:20:14.435Z,97.93
2023-03-06T04:22:42.544Z,97.41
2023-03-06T04:25:12.128Z,96.92
2023-03-06T04:27:39.940Z,97.46
2023-03-06T04:30:09.225Z,98.33
2023-03-06T04:32:37.473Z,97.85
2023-03-06T04:35:06.729Z,98.35
2023-03-06T04:37:44.418Z,98.39
2023-03-06T04:40:19.428Z,99.01
2023-03-06T04:42:47.357Z,99.28
2023-03-06T04:45:15.914Z,98.46
2023-03-06T04:47:44.492Z,98.98
2023-03-06T04:50:12.946Z,97.72
2023-03-06T04:52:41.286Z,98.46
2023-03-06T04:55:13.350Z,98.24
2023-03-06T04:57:43.348Z,98.15
2023-03-06T05:00:15.829Z,99.37
2023-03-06T05:02:43.876Z,99.53
2023-03-06T05:05:12.515Z,100.00
2023-03-06T05:07:40.472Z,99.98
2023-03-06T05:10:12.221Z,99.69
2023-03-06T05:12:40.231Z,99.39
2023-03-06T05:15:09.016Z,100.00
2023-03-06T05:17:36.879Z,100.00
2023-03-06T05:20:06.138Z,100.00
2023-03-06T05:22:34.262Z,100.00
2023-03-06T05:25:01.860Z,100.00
2023-03-06T05:27:30.920Z,100.00
2023-03-06T05:29:58.756Z,100.00
2023-03-06T05:32:26.431Z,100.00
2023-03-06T05:34:54.159Z,100.00
2023-03-06T05:37:22.947Z,100.00
2023-03-06T05:39:51.131Z,100.00
2023-03-06T05:42:18.814Z,100.00
2023-03-06T05:44:47.802Z,100.00
2023-03-06T05:47:15.669Z,100.00
2023-03-06T05:49:43.269Z,100.00
2023-03-06T05:52:13.456Z,100.00
2023-03-06T05:54:41.120Z,100.00
2023-03-06T05:57:08.780Z,100.00
2023-03-06T05:59:36.538Z,100.00
2023-03-06T06:02:05.778Z,100.00
2023-03-06T06:04:33.688Z,100.00
2023-03-06T06:07:02.090Z,100.00
2023-03-06T06:09:30.207Z,100.00
2023-03-06T06:12:00.280Z,100.00
2023-03-06T06:14:27.978Z,100.00
2023-03-06T06:16:56.326Z,100.00
2023-03-06T06:19:25.715Z,100.00
2023-03-06T06:21:54.820Z,100.00
2023-03-06T06:24:24.310Z,100.00
2023-03-06T06:26:52.803Z,100.00
2023-03-06T06:29:20.967Z,100.00
2023-03-06T06:31:48.793Z,100.00
2023-03-06T06:34:16.838Z,100.00
2023-03-06T06:36:45.829Z,100.00
2023-03-06T06:39:16.213Z,100.00
2023-03-06T06:41:59.391Z,100.00
2023-03-06T06:44:30.296Z,100.00
2023-03-06T06:49:46.488Z,100.00
2023-03-06T06:52:15.492Z,100.00
2023-03-06T06:54:43.112Z,100.00
2023-03-06T06:57:11.623Z,100.00
2023-03-06T06:59:39.332Z,100.00
2023-03-06T07:02:07.129Z,100.00
2023-03-06T07:04:35.193Z,100.00
2023-03-06T07:07:03.466Z,100.00
2023-03-06T07:09:32.479Z,100.00
2023-03-06T07:12:00.201Z,100.00
2023-03-06T07:14:28.025Z,100.00
2023-03-06T07:16:55.664Z,100.00
2023-03-06T07:19:23.407Z,100.00
2023-03-06T07:21:51.654Z,100.00
2023-03-06T07:24:19.256Z,100.00
2023-03-06T07:26:48.556Z,100.00
2023-03-06T07:29:16.723Z,100.00
2023-03-06T07:31:44.688Z,100.00
2023-03-06T07:34:14.190Z,100.00
2023-03-06T07:36:42.303Z,100.00
2023-03-06T07:39:10.660Z,100.00
2023-03-06T07:41:38.306Z,100.00
2023-03-06T07:44:07.642Z,100.00
2023-03-06T07:46:35.277Z,100.00
2023-03-06T07:49:02.969Z,100.00
2023-03-06T07:51:30.670Z,99.20
2023-03-06T07:53:58.326Z,97.87
2023-03-06T07:56:26.023Z,94.79
2023-03-06T07:58:55.334Z,94.66
2023-03-06T08:01:25.131Z,94.66
2023-03-06T08:03:53.218Z,93.48
2023-03-06T08:06:23.538Z,91.93
2023-03-06T08:08:52.913Z,95.52
2023-03-06T08:11:22.586Z,94.85
2023-03-06T08:13:52.511Z,95.37
2023-03-06T08:16:21.233Z,94.83
2023-03-06T08:18:50.826Z,94.07
2023-03-06T08:21:20.625Z,99.54
2023-03-06T08:23:49.100Z,98.66
2023-03-06T08:26:19.763Z,99.03
2023-03-06T08:28:47.879Z,100.00
2023-03-06T08:31:24.784Z,100.00
2023-03-06T08:33:54.163Z,100.00
2023-03-06T08:36:22.412Z,100.00
2023-03-06T08:38:50.791Z,100.00
2023-03-06T08:41:20.281Z,100.00
2023-03-06T08:43:49.162Z,100.00
2023-03-06T08:46:18.704Z,100.00
2023-03-06T08:48:47.670Z,100.00
2023-03-06T08:51:18.130Z,100.00
2023-03-06T08:53:45.995Z,100.00
2023-03-06T08:56:18.608Z,100.00
2023-03-06T08:58:46.976Z,100.00
2023-03-06T09:01:16.226Z,100.00
2023-03-06T09:03:44.450Z,100.00
2023-03-06T09:06:12.509Z,100.00
2023-03-06T09:08:43.138Z,100.00
2023-03-06T09:11:11.403Z,100.00
2023-03-06T09:13:39.300Z,100.00
2023-03-06T09:16:08.884Z,100.00
2023-03-06T09:18:36.572Z,100.00
2023-03-06T09:21:04.739Z,100.00
2023-03-06T09:23:32.721Z,100.00
2023-03-06T09:26:03.255Z,100.00
2023-03-06T09:28:31.082Z,100.00
2023-03-06T09:30:59.252Z,100.00
2023-03-06T09:33:28.648Z,100.00
2023-03-06T09:35:57.724Z,100.00
2023-03-06T09:38:27.913Z,100.00
2023-03-06T09:41:12.835Z,95.79
2023-03-06T09:43:43.892Z,95.20
2023-03-06T09:46:23.692Z,92.61
2023-03-06T09:49:10.102Z,89.93
2023-03-06T09:51:51.134Z,89.46
2023-03-06T09:54:27.599Z,87.93
2023-03-06T09:56:56.591Z,86.88
2023-03-06T09:59:26.156Z,87.30
2023-03-06T10:02:01.620Z,86.58
2023-03-06T10:04:39.371Z,84.91
2023-03-06T10:07:14.008Z,83.35
2023-03-06T10:09:47.333Z,81.33
2023-03-06T10:12:28.525Z,81.11
2023-03-06T10:15:15.050Z,80.46
2023-03-06T10:17:43.698Z,79.45
2023-03-06T10:20:24.437Z,80.05
2023-03-06T10:23:11.140Z,80.27
2023-03-06T10:25:47.325Z,80.89
2023-03-06T10:28:18.931Z,83.63
2023-03-06T10:30:52.666Z,84.06
2023-03-06T10:33:34.418Z,83.28
2023-03-06T10:36:02.293Z,81.79
2023-03-06T10:38:37.674Z,81.60
2023-03-06T10:41:09.431Z,79.54
2023-03-06T10:43:41.085Z,81.29
2023-03-06T10:46:11.549Z,81.15
2023-03-06T10:48:42.081Z,82.03
2023-03-06T10:51:19.048Z,83.06
2023-03-06T10:53:53.479Z,81.67
2023-03-06T10:56:32.742Z,82.27
2023-03-06T10:59:10.246Z,80.60
2023-03-06T11:01:38.774Z,81.23
2023-03-06T11:04:22.725Z,79.31
2023-03-06T11:07:06.562Z,79.66
2023-03-06T11:09:34.641Z,79.01
2023-03-06T11:12:21.774Z,77.43
2023-03-06T11:15:09.384Z,79.35
2023-03-06T11:17:39.315Z,79.67
2023-03-06T11:20:18.222Z,80.32
2023-03-06T11:22:49.560Z,77.33
2023-03-06T11:25:20.873Z,75.73
2023-03-06T11:27:56.688Z,75.89
2023-03-06T11:30:31.216Z,73.44
2023-03-06T11:33:02.365Z,73.25
2023-03-06T11:35:35.288Z,73.33
2023-03-06T11:38:12.274Z,73.47
2023-03-06T11:40:44.359Z,72.97
2023-03-06T11:43:20.492Z,71.66
2023-03-06T11:45:58.031Z,72.80
2023-03-06T11:48:31.696Z,71.28
2023-03-06T11:51:07.324Z,71.46
2023-03-06T11:53:37.787Z,72.26
2023-03-06T11:56:22.654Z,73.32
2023-03-06T11:59:01.726Z,72.02
2023-03-06T12:01:36.158Z,74.53
2023-03-06T12:04:32.887Z,78.53
2023-03-06T12:07:12.287Z,81.08
2023-03-06T12:09:47.458Z,82.32
2023-03-06T12:12:45.289Z,83.08
2023-03-06T12:15:36.633Z,83.30
2023-03-06T12:18:20.321Z,83.98
2023-03-06T12:20:58.621Z,80.66
2023-03-06T12:23:46.425Z,81.59
2023-03-06T12:26:37.111Z,86.77
2023-03-06T12:29:23.529Z,83.86
2023-03-06T12:32:01.903Z,82.83
2023-03-06T12:34:45.456Z,82.42
2023-03-06T12:37:25.235Z,80.70
2023-03-06T12:40:14.318Z,83.44
2023-03-06T12:43:01.583Z,79.42
2023-03-06T12:45:32.753Z,80.46
2023-03-06T12:48:01.962Z,81.83
2023-03-06T12:50:32.767Z,83.76
2023-03-06T12:53:03.910Z,84.12
2023-03-06T12:55:39.609Z,81.58
2023-03-06T12:58:35.419Z,78.88
2023-03-06T13:01:06.063Z,76.60
2023-03-06T13:03:49.408Z,75.21
2023-03-06T13:06:45.060Z,73.62
2023-03-06T13:09:20.720Z,72.00
2023-03-06T13:12:05.488Z,70.59
2023-03-06T13:14:54.848Z,67.77
2023-03-06T13:17:28.587Z,68.54
2023-03-06T13:20:27.833Z,69.38
2023-03-06T13:22:57.151Z,68.46
2023-03-06T13:25:49.625Z,71.46
2023-03-06T13:28:25.859Z,72.04
2023-03-06T13:30:53.702Z,71.99
2023-03-06T13:33:54.659Z,71.58
2023-03-06T13:36:28.214Z,72.86
2023-03-06T13:39:12.595Z,71.06
2023-03-06T13:41:58.849Z,70.47
2023-03-06T13:44:49.559Z,68.82
2023-03-06T13:48:10.668Z,68.24
2023-03-06T13:50:36.309Z,68.70
2023-03-06T13:53:19.546Z,67.03
2023-03-06T13:56:00.858Z,67.01
2023-03-06T13:58:44.038Z,65.44
2023-03-06T14:01:37.204Z,65.43
2023-03-06T14:04:27.225Z,66.27
2023-03-06T14:07:06.519Z,67.37
2023-03-06T14:09:36.618Z,67.38
2023-03-06T14:12:15.793Z,72.31
2023-03-06T14:14:45.635Z,74.39
2023-03-06T14:17:23.942Z,75.78
2023-03-06T14:19:52.443Z,75.86
2023-03-06T14:22:24.731Z,75.90
2023-03-06T14:24:59.686Z,71.86
2023-03-06T14:27:43.800Z,69.38
2023-03-06T14:30:15.557Z,67.03
2023-03-06T14:32:44.287Z,68.20
2023-03-06T14:35:29.394Z,68.18
2023-03-06T14:37:59.883Z,69.76
2023-03-06T14:40:32.334Z,68.68
2023-03-06T14:43:26.684Z,70.32
2023-03-06T14:45:57.377Z,74.22
2023-03-06T14:48:27.090Z,78.05
2023-03-06T14:50:56.785Z,80.22
2023-03-06T14:53:27.935Z,83.42
2023-03-06T14:55:58.902Z,85.88
2023-03-06T14:58:36.512Z,89.67
2023-03-06T15:01:06.967Z,92.45
2023-03-06T15:03:42.383Z,94.78
2023-03-06T15:06:12.910Z,97.28
2023-03-06T15:08:43.630Z,97.75
2023-03-06T15:11:11.340Z,99.97
2023-03-06T15:13:41.260Z,100.00
2023-03-06T15:16:23.474Z,100.00
2023-03-06T15:18:58.975Z,100.00
2023-03-06T15:21:28.529Z,100.00
2023-03-06T15:23:58.056Z,100.00
2023-03-06T15:26:29.518Z,100.00
2023-03-06T15:29:12.761Z,100.00
2023-03-06T15:31:41.905Z,100.00
2023-03-06T15:34:23.297Z,100.00
2023-03-06T15:36:54.974Z,100.00
2023-03-06T15:39:35.181Z,100.00
2023-03-06T15:42:05.958Z,100.00
2023-03-06T15:44:35.188Z,100.00
2023-03-06T15:47:08.764Z,100.00
2023-03-06T15:49:37.686Z,100.00
2023-03-06T15:52:05.366Z,100.00
2023-03-06T15:54:33.255Z,100.00
2023-03-06T15:57:01.204Z,100.00
2023-03-06T15:59:32.878Z,100.00
2023-03-06T16:02:05.479Z,100.00
2023-03-06T16:04:33.349Z,100.00
2023-03-06T16:07:01.023Z,100.00
2023-03-06T16:09:28.637Z,100.00
2023-03-06T16:11:56.233Z,100.00
2023-03-06T16:14:24.448Z,100.00
2023-03-06T16:16:53.879Z,100.00
2023-03-06T16:19:26.644Z,100.00
2023-03-06T16:21:55.582Z,100.00
2023-03-06T16:24:23.555Z,100.00
2023-03-06T16:26:52.749Z,100.00
2023-03-06T16:29:22.365Z,100.00
2023-03-06T16:31:50.116Z,100.00
2023-03-06T16:34:20.020Z,100.00
2023-03-06T16:36:50.242Z,100.00
2023-03-06T16:39:20.195Z,100.00
2023-03-06T16:41:49.286Z,100.00
2023-03-06T16:44:17.296Z,100.00
2023-03-06T16:46:47.403Z,100.00
2023-03-06T16:49:17.304Z,100.00
2023-03-06T16:51:45.622Z,99.69
2023-03-06T16:54:14.658Z,97.96
2023-03-06T16:56:42.908Z,97.41
2023-03-06T16:59:11.123Z,100.00
2023-03-06T17:01:40.516Z,100.00
2023-03-06T17:04:08.234Z,100.00
2023-03-06T17:06:36.610Z,100.00
2023-03-06T17:09:04.960Z,100.00
2023-03-06T17:11:34.138Z,99.93
2023-03-06T17:14:02.598Z,99.69
2023-03-06T17:16:30.231Z,99.56
2023-03-06T17:18:58.124Z,98.86
2023-03-06T17:21:26.922Z,98.75
2023-03-06T17:23:54.497Z,99.72
2023-03-06T17:26:22.179Z,100.00
2023-03-06T17:28:51.195Z,100.00
2023-03-06T17:31:20.916Z,100.00
2023-03-06T17:33:48.853Z,100.00
2023-03-06T17:36:17.319Z,100.00
2023-03-06T17:38:45.182Z,98.95
2023-03-06T17:41:13.364Z,98.46
2023-03-06T17:43:41.553Z,97.67
2023-03-06T17:46:12.592Z,97.07
2023-03-06T17:48:40.825Z,95.62
2023-03-06T17:51:09.252Z,93.10
2023-03-06T17:53:37.244Z,93.59
2023-03-06T17:56:06.564Z,93.65
2023-03-06T17:58:34.763Z,91.22
2023-03-06T18:01:12.911Z,90.24
2023-03-06T18:03:44.230Z,88.25
2023-03-06T18:06:12.051Z,86.80
2023-03-06T18:08:40.864Z,85.72
2023-03-06T18:11:10.558Z,85.52
2023-03-06T18:13:40.877Z,85.57
2023-03-06T18:16:09.400Z,86.56
2023-03-06T18:18:38.778Z,89.68
2023-03-06T18:21:08.188Z,89.91
2023-03-06T18:23:36.864Z,89.31
2023-03-06T18:26:11.400Z,88.72
2023-03-06T18:28:42.304Z,88.99
2023-03-06T18:31:15.526Z,88.90
2023-03-06T18:33:44.706Z,89.28
2023-03-06T18:36:12.309Z,91.03
2023-03-06T18:38:41.269Z,91.74
2023-03-06T18:41:09.511Z,92.42
2023-03-06T18:43:37.442Z,92.39
2023-03-06T18:46:06.557Z,91.48
2023-03-06T18:48:34.411Z,91.62
2023-03-06T18:51:06.816Z,92.68
2023-03-06T18:53:34.747Z,91.68
2023-03-06T18:56:03.277Z,92.25
2023-03-06T18:58:30.918Z,91.19
2023-03-06T19:00:59.681Z,92.68
2023-03-06T19:03:27.901Z,91.02
2023-03-06T19:05:55.759Z,89.92
2023-03-06T19:08:24.848Z,90.78
2023-03-06T19:10:52.660Z,90.57
2023-03-06T19:13:20.311Z,90.24
2023-03-06T19:15:49.841Z,91.15
2023-03-06T19:18:19.109Z,90.87
2023-03-06T19:20:46.742Z,90.01
2023-03-06T19:23:14.397Z,89.91
2023-03-06T19:25:43.425Z,89.86
2023-03-06T19:28:11.058Z,88.65
2023-03-06T19:30:40.908Z,89.00
2023-03-06T19:33:08.541Z,88.59
2023-03-06T19:35:37.552Z,89.46
2023-03-06T19:38:05.580Z,89.90
2023-03-06T19:40:34.002Z,88.83
2023-03-06T19:43:03.936Z,89.40
2023-03-06T19:45:31.545Z,88.13
2023-03-06T19:48:00.800Z,88.61
2023-03-06T19:50:29.655Z,88.33
2023-03-06T19:52:57.653Z,88.81
2023-03-06T19:55:26.322Z,88.89
2023-03-06T19:57:54.299Z,89.57
2023-03-06T20:00:23.558Z,89.34
2023-03-06T20:02:51.332Z,89.58
2023-03-06T20:05:19.065Z,89.45
2023-03-06T20:07:46.727Z,88.17
2023-03-06T20:10:14.377Z,88.55
2023-03-06T20:12:42.040Z,90.75
2023-03-06T20:15:10.590Z,91.57
2023-03-06T20:17:41.027Z,91.68
2023-03-06T20:20:10.761Z,91.92
2023-03-06T20:22:38.611Z,92.79
2023-03-06T20:25:06.992Z,93.60
2023-03-06T20:27:34.937Z,93.21
2023-03-06T20:30:02.665Z,94.08
2023-03-06T20:32:30.769Z,93.45
2023-03-06T20:34:59.914Z,92.98
2023-03-06T20:37:27.619Z,93.34
2023-03-06T20:39:55.239Z,93.35
2023-03-06T20:42:22.893Z,95.07
2023-03-06T20:44:50.488Z,95.50
2023-03-06T20:47:18.200Z,94.73
2023-03-06T20:49:45.855Z,93.67
2023-03-06T20:52:14.979Z,94.18
2023-03-06T20:54:42.625Z,93.90
2023-03-06T20:57:10.402Z,93.74
2023-03-06T20:59:38.101Z,94.45
2023-03-06T21:02:06.467Z,94.81
2023-03-06T21:04:34.183Z,95.65
2023-03-06T21:07:01.805Z,95.97
2023-03-06T21:09:32.756Z,95.86
2023-03-06T21:12:00.417Z,96.00
2023-03-06T21:14:28.044Z,95.52
2023-03-06T21:16:55.678Z,95.22
2023-03-06T21:19:23.326Z,94.88
2023-03-06T21:21:51.182Z,95.93
2023-03-06T21:24:20.965Z,97.47
2023-03-06T21:26:51.127Z,96.82
2023-03-06T21:29:18.842Z,96.94
2023-03-06T21:31:46.506Z,96.44
2023-03-06T21:34:14.217Z,96.82
2023-03-06T21:36:42.862Z,95.69
2023-03-06T21:39:11.484Z,96.70
2023-03-06T21:41:40.423Z,96.05
2023-03-06T21:44:09.502Z,97.58
2023-03-06T21:46:37.219Z,96.82
2023-03-06T21:49:06.062Z,97.04
2023-03-06T21:51:34.205Z,97.79
2023-03-06T21:54:02.990Z,97.13
2023-03-06T21:56:30.694Z,97.22
2023-03-06T21:58:58.432Z,95.75
2023-03-06T22:01:29.317Z,97.19
2023-03-06T22:03:58.304Z,96.20
2023-03-06T22:06:27.917Z,96.40
2023-03-06T22:08:57.460Z,96.48
2023-03-06T22:11:26.674Z,97.27
2023-03-06T22:13:54.561Z,98.06
2023-03-06T22:16:22.435Z,98.83
2023-03-06T22:18:53.042Z,98.46
2023-03-06T22:21:22.790Z,98.72
2023-03-06T22:23:51.060Z,98.08
2023-03-06T22:26:18.974Z,98.36
2023-03-06T22:28:46.874Z,98.45
2023-03-06T22:31:16.149Z,96.79
2023-03-06T22:33:43.966Z,96.84
2023-03-06T22:36:15.381Z,97.05
2023-03-06T22:38:44.760Z,97.13
2023-03-06T22:41:13.453Z,97.84
2023-03-06T22:43:42.474Z,97.72
2023-03-06T22:46:12.111Z,97.76
2023-03-06T22:48:39.774Z,98.32
2023-03-06T22:51:10.292Z,97.67
2023-03-06T22:53:39.875Z,98.67
2023-03-06T22:56:10.775Z,98.18
2023-03-06T22:58:38.904Z,97.34
2023-03-06T23:01:08.434Z,98.74
2023-03-06T23:03:37.315Z,97.80
2023-03-06T23:06:09.596Z,97.50
2023-03-06T23:08:38.678Z,98.43
2023-03-06T23:11:09.259Z,96.64
2023-03-06T23:13:56.033Z,98.17
2023-03-06T23:16:42.252Z,96.17
2023-03-06T23:19:28.466Z,95.90
2023-03-06T23:22:14.885Z,96.35
2023-03-06T23:25:02.652Z,96.84
2023-03-06T23:27:30.278Z,97.25
2023-03-06T23:29:58.921Z,98.60
2023-03-06T23:32:26.746Z,97.75
2023-03-06T23:34:54.377Z,98.79
2023-03-06T23:37:22.069Z,99.17
2023-03-06T23:39:49.891Z,98.83
2023-03-06T23:42:19.854Z,100.00
2023-03-06T23:44:47.475Z,100.00
2023-03-06T23:47:17.104Z,98.64
2023-03-06T23:49:44.784Z,99.01
2023-03-06T23:52:12.561Z,98.78
2023-03-06T23:54:40.314Z,99.12
2023-03-06T23:57:07.974Z,99.28
2023-03-06T23:59:37.030Z,98.63
